Time;durP1;ratioP1;P1;durP2;ratioP2;P2;SDS_P1;SDS_P2;PMS_P1;PMS_P2;Temp;Humidity;BMP_temperature;BMP_pressure;BME280_temperature;BME280_humidity;BME280_pressure;Samples;Min_cycle;Max_cycle;Signal;HPM_P1;HPM_P2
2023/01/09 00:00:46;;;;;;;15.20;9.10;;;5.40;91.40;;;;;;5092479;28;20228;-65
2023/01/09 00:03:13;;;;;;;10.45;8.70;;;5.40;91.40;;;;;;5092188;28;20269;-64
2023/01/09 00:05:40;;;;;;;16.88;9.60;;;5.30;91.40;;;;;;5092302;28;20271;-65
2023/01/09 00:08:07;;;;;;;11.60;9.52;;;5.30;91.60;;;;;;5092318;28;20220;-65
2023/01/09 00:10:34;;;;;;;11.48;7.82;;;5.30;91.60;;;;;;5092087;28;20236;-64
2023/01/09 00:13:05;;;;;;;10.57;8.10;;;5.20;91.80;;;;;;5092249;28;20276;-65
2023/01/09 00:15:32;;;;;;;10.32;7.18;;;5.20;92.10;;;;;;5092090;28;20246;-65
2023/01/09 00:17:59;;;;;;;12.90;7.75;;;5.30;91.90;;;;;;5091786;28;20340;-65
2023/01/09 00:20:25;;;;;;;13.77;8.20;;;5.30;92.00;;;;;;5092075;28;20272;-65
2023/01/09 00:22:52;;;;;;;11.10;8.40;;;5.20;92.20;;;;;;5092460;28;20228;-65
2023/01/09 00:25:21;;;;;;;9.20;7.30;;;5.30;92.50;;;;;;5092126;28;20194;-65
2023/01/09 00:27:48;;;;;;;11.63;8.60;;;5.30;92.50;;;;;;5092225;28;20541;-64
2023/01/09 00:30:17;;;;;;;13.75;8.70;;;5.40;92.50;;;;;;5092276;28;20228;-64
2023/01/09 00:32:44;;;;;;;13.07;9.70;;;5.40;92.50;;;;;;5092130;28;20232;-65
2023/01/09 00:35:15;;;;;;;14.40;10.52;;;5.50;92.50;;;;;;5092032;28;20200;-64
2023/01/09 00:37:44;;;;;;;14.93;9.95;;;5.60;92.80;;;;;;5091864;28;20243;-65
2023/01/09 00:40:14;;;;;;;13.65;9.30;;;5.60;92.30;;;;;;5091938;28;20189;-66
2023/01/09 00:42:42;;;;;;;16.58;10.85;;;5.60;92.10;;;;;;5091736;28;20224;-65
2023/01/09 00:45:14;;;;;;;12.30;9.38;;;5.50;92.20;;;;;;5091886;28;20240;-65
2023/01/09 00:47:46;;;;;;;12.32;8.93;;;5.50;92.30;;;;;;5091849;28;20262;-65
2023/01/09 00:50:17;;;;;;;9.32;7.57;;;5.50;92.60;;;;;;5092146;28;20193;-64
2023/01/09 00:52:46;;;;;;;7.40;5.90;;;5.50;93.00;;;;;;5091678;28;20299;-65
2023/01/09 00:55:14;;;;;;;9.15;7.07;;;5.50;93.20;;;;;;5092618;28;20224;-64
2023/01/09 00:57:43;;;;;;;9.55;6.85;;;5.50;93.50;;;;;;5095470;28;20244;-64
2023/01/09 01:00:12;;;;;;;11.70;7.55;;;5.60;93.50;;;;;;5094807;28;20666;-65
2023/01/09 01:02:39;;;;;;;10.52;6.50;;;5.60;93.60;;;;;;5095367;28;20239;-64
2023/01/09 01:07:52;;;;;;;14.07;9.00;;;5.70;93.20;;;;;;5095557;28;20196;-65
2023/01/09 01:10:22;;;;;;;10.65;6.90;;;5.70;93.20;;;;;;5095306;28;20247;-66
2023/01/09 01:12:49;;;;;;;8.32;6.63;;;5.60;93.20;;;;;;5095206;28;20316;-65
2023/01/09 01:15:17;;;;;;;8.65;5.85;;;5.60;93.30;;;;;;5095299;28;20315;-65
2023/01/09 01:17:44;;;;;;;11.48;7.05;;;5.60;93.30;;;;;;5094657;28;20658;-65
2023/01/09 01:20:15;;;;;;;8.52;5.80;;;5.60;93.50;;;;;;5095019;28;20220;-65
2023/01/09 01:22:42;;;;;;;7.50;5.30;;;5.60;93.80;;;;;;5095010;28;20193;-64
2023/01/09 01:25:10;;;;;;;8.88;5.18;;;5.60;94.00;;;;;;5095079;28;20635;-65
2023/01/09 01:27:38;;;;;;;5.78;4.55;;;5.70;94.00;;;;;;5095200;28;20225;-65
2023/01/09 01:30:06;;;;;;;8.10;5.20;;;5.70;94.00;;;;;;5094933;28;20220;-64
2023/01/09 01:32:33;;;;;;;6.85;5.57;;;5.70;93.90;;;;;;5094816;28;20220;-65
2023/01/09 01:35:00;;;;;;;6.25;4.82;;;5.80;93.90;;;;;;5094950;28;20220;-65
2023/01/09 01:37:28;;;;;;;8.40;5.78;;;5.90;93.80;;;;;;5094440;28;20228;-65
2023/01/09 01:39:55;;;;;;;7.53;5.88;;;5.90;93.60;;;;;;5094431;28;20324;-66
2023/01/09 01:42:22;;;;;;;8.52;5.30;;;5.90;93.50;;;;;;5094940;28;20280;-65
2023/01/09 01:44:59;;;;;;;7.60;5.38;;;5.90;93.40;;;;;;5094719;28;20224;-65
2023/01/09 01:47:33;;;;;;;6.35;4.97;;;5.90;93.50;;;;;;5094619;28;20647;-66
2023/01/09 01:50:05;;;;;;;10.43;5.45;;;5.90;93.50;;;;;;5094733;28;20189;-65
2023/01/09 01:52:35;;;;;;;6.88;5.05;;;5.90;93.60;;;;;;5094632;28;20229;-65
2023/01/09 01:55:05;;;;;;;12.40;5.65;;;5.90;94.00;;;;;;5094130;28;20197;-65
2023/01/09 01:57:33;;;;;;;5.57;4.53;;;5.90;93.90;;;;;;5094352;28;20254;-65
2023/01/09 02:00:02;;;;;;;6.57;5.00;;;5.90;94.00;;;;;;5094430;28;20248;-66
2023/01/09 02:02:32;;;;;;;7.60;5.00;;;6.00;94.00;;;;;;5094001;28;20228;-65
2023/01/09 02:05:01;;;;;;;5.68;4.15;;;6.00;94.00;;;;;;5094022;28;20284;-65
2023/01/09 02:07:28;;;;;;;5.00;4.10;;;6.00;94.00;;;;;;5093138;28;20806;-65
2023/01/09 02:09:57;;;;;;;6.57;4.97;;;6.00;94.10;;;;;;5093645;28;20193;-65
2023/01/09 02:12:26;;;;;;;7.15;5.35;;;6.00;94.20;;;;;;5093659;28;20189;-66
2023/01/09 02:14:57;;;;;;;7.13;4.10;;;6.00;94.30;;;;;;5093879;28;20607;-65
2023/01/09 02:17:35;;;;;;;4.70;3.33;;;6.10;94.30;;;;;;5093658;28;20193;-66
2023/01/09 02:20:31;;;;;;;4.40;2.92;;;6.20;94.40;;;;;;5093998;28;20612;-65
2023/01/09 02:23:16;;;;;;;6.78;3.92;;;6.20;94.50;;;;;;5093935;28;20640;-65
2023/01/09 02:26:08;;;;;;;4.55;3.38;;;6.30;94.40;;;;;;5093956;28;20193;-65
2023/01/09 02:28:55;;;;;;;4.53;2.67;;;6.40;94.30;;;;;;5093709;28;20233;-65
2023/01/09 02:31:31;;;;;;;3.10;2.42;;;6.40;94.30;;;;;;5093442;28;20194;-65
2023/01/09 02:34:08;;;;;;;4.70;2.97;;;6.40;94.70;;;;;;5093880;28;20193;-65
2023/01/09 02:36:42;;;;;;;4.80;2.80;;;6.40;94.80;;;;;;5093533;28;20185;-66
2023/01/09 02:39:19;;;;;;;3.67;2.42;;;6.50;95.00;;;;;;5093620;28;20263;-65
2023/01/09 02:41:52;;;;;;;3.92;2.80;;;6.50;95.10;;;;;;5093860;28;20247;-65
2023/01/09 02:44:23;;;;;;;3.58;2.63;;;6.50;95.30;;;;;;5093479;28;20327;-65
2023/01/09 02:47:03;;;;;;;5.82;3.05;;;6.50;95.20;;;;;;5093515;28;20683;-65
2023/01/09 02:49:30;;;;;;;4.30;2.45;;;6.60;95.30;;;;;;5093240;28;20280;-65
2023/01/09 02:52:09;;;;;;;4.35;2.40;;;6.60;95.10;;;;;;5093312;28;20281;-66
2023/01/09 02:54:49;;;;;;;4.18;2.92;;;6.60;94.90;;;;;;5093357;28;20197;-65
2023/01/09 02:57:39;;;;;;;4.45;3.30;;;6.60;94.60;;;;;;5093438;28;20274;-65
2023/01/09 03:00:19;;;;;;;3.33;2.25;;;6.50;94.90;;;;;;5093140;28;20677;-65
2023/01/09 03:02:52;;;;;;;3.80;2.78;;;6.50;95.10;;;;;;5093256;28;20191;-65
2023/01/09 03:05:26;;;;;;;3.97;2.20;;;6.50;95.10;;;;;;5093303;28;20220;-65
2023/01/09 03:07:59;;;;;;;3.65;1.83;;;6.50;95.30;;;;;;5093425;28;20186;-65
2023/01/09 03:10:32;;;;;;;3.30;2.60;;;6.50;95.40;;;;;;5092938;28;20594;-65
2023/01/09 03:13:02;;;;;;;3.05;2.03;;;6.60;95.80;;;;;;5093259;28;20204;-66
2023/01/09 03:15:33;;;;;;;3.00;2.22;;;6.50;95.90;;;;;;5092901;28;20313;-65
2023/01/09 03:18:03;;;;;;;4.15;2.33;;;6.60;95.90;;;;;;5092075;28;20260;-65
2023/01/09 03:20:32;;;;;;;4.10;2.33;;;6.60;95.60;;;;;;5093088;28;20279;-65
2023/01/09 03:23:01;;;;;;;3.67;2.80;;;6.60;95.20;;;;;;5092772;28;20225;-65
2023/01/09 03:25:29;;;;;;;4.40;2.60;;;6.70;95.10;;;;;;5092986;28;20248;-65
2023/01/09 03:28:00;;;;;;;4.68;2.55;;;6.60;95.20;;;;;;5092688;28;20621;-66
2023/01/09 03:30:30;;;;;;;5.95;2.88;;;6.60;95.40;;;;;;5093011;28;20593;-65
2023/01/09 03:32:57;;;;;;;6.43;2.10;;;6.60;95.40;;;;;;5092313;28;20235;-65
2023/01/09 03:35:26;;;;;;;4.18;2.08;;;6.60;95.50;;;;;;5092792;28;20272;-65
2023/01/09 03:37:53;;;;;;;4.18;2.10;;;6.60;95.70;;;;;;5092613;28;20237;-65
2023/01/09 03:40:20;;;;;;;3.70;1.85;;;6.60;96.00;;;;;;5092366;28;20312;-65
2023/01/09 03:42:47;;;;;;;2.80;2.00;;;6.60;96.00;;;;;;5092456;28;20705;-65
2023/01/09 03:45:14;;;;;;;2.25;1.55;;;6.70;96.00;;;;;;5092489;28;20580;-65
2023/01/09 03:47:41;;;;;;;3.40;1.45;;;6.70;96.10;;;;;;5092631;28;20277;-65
2023/01/09 03:50:09;;;;;;;2.20;1.10;;;6.70;96.40;;;;;;5092482;28;20226;-65
2023/01/09 03:52:37;;;;;;;1.90;1.00;;;6.80;96.50;;;;;;5092644;28;20279;-65
2023/01/09 03:55:05;;;;;;;1.50;0.63;;;6.90;96.40;;;;;;5092540;28;20244;-65
2023/01/09 03:57:32;;;;;;;2.05;0.82;;;7.00;96.70;;;;;;5092636;28;20190;-65
2023/01/09 03:59:59;;;;;;;1.80;0.75;;;7.00;96.70;;;;;;5092516;28;20314;-65
2023/01/09 04:02:26;;;;;;;1.83;0.75;;;7.10;96.70;;;;;;5092930;28;20243;-66
2023/01/09 04:04:53;;;;;;;2.10;1.10;;;7.10;96.40;;;;;;5092959;28;20203;-67
2023/01/09 04:07:20;;;;;;;1.83;0.90;;;7.20;96.20;;;;;;5092789;28;20199;-65
2023/01/09 04:09:48;;;;;;;1.80;0.70;;;7.30;96.10;;;;;;5092677;28;20242;-65
2023/01/09 04:12:15;;;;;;;2.08;0.80;;;7.30;95.60;;;;;;5092875;28;20741;-65
2023/01/09 04:14:42;;;;;;;2.33;0.75;;;7.40;95.10;;;;;;5092785;28;20275;-65
2023/01/09 04:17:09;;;;;;;1.95;0.80;;;7.40;94.90;;;;;;5092808;28;20221;-65
2023/01/09 04:19:36;;;;;;;1.55;0.75;;;7.50;94.80;;;;;;5092397;28;20232;-66
2023/01/09 04:22:03;;;;;;;1.63;0.65;;;7.50;94.60;;;;;;5092669;28;20229;-65
2023/01/09 04:24:34;;;;;;;2.20;0.80;;;7.50;94.40;;;;;;5092484;28;20235;-65
2023/01/09 04:27:02;;;;;;;2.05;1.02;;;7.60;94.30;;;;;;5092352;28;20228;-65
2023/01/09 04:29:31;;;;;;;2.47;0.70;;;7.70;94.20;;;;;;5093978;28;20237;-65
2023/01/09 04:31:58;;;;;;;1.70;0.70;;;7.70;94.10;;;;;;5096585;28;20221;-65
2023/01/09 04:34:26;;;;;;;1.63;0.60;;;7.70;94.00;;;;;;5096392;28;20226;-65
2023/01/09 04:36:55;;;;;;;2.72;0.90;;;7.70;93.90;;;;;;5096444;28;20253;-65
2023/01/09 04:39:22;;;;;;;1.70;0.75;;;7.70;93.70;;;;;;5096212;28;20590;-65
2023/01/09 04:41:49;;;;;;;1.50;0.60;;;7.80;93.80;;;;;;5096160;28;20699;-65
2023/01/09 04:44:18;;;;;;;1.60;0.70;;;7.80;93.80;;;;;;5096509;28;20246;-65
2023/01/09 04:46:45;;;;;;;1.75;0.75;;;7.80;93.70;;;;;;5096389;28;20231;-65
2023/01/09 04:49:12;;;;;;;1.50;0.60;;;7.70;93.60;;;;;;5096321;28;20196;-65
2023/01/09 04:51:39;;;;;;;1.70;0.60;;;7.80;93.70;;;;;;5096218;28;20226;-65
2023/01/09 04:54:06;;;;;;;1.60;0.70;;;7.70;93.80;;;;;;5096007;28;20221;-65
2023/01/09 04:56:33;;;;;;;1.50;0.60;;;7.70;94.10;;;;;;5095940;28;20657;-67
2023/01/09 04:59:00;;;;;;;1.50;0.50;;;7.70;94.30;;;;;;5095998;28;20254;-65
2023/01/09 05:01:28;;;;;;;1.50;0.50;;;7.70;94.30;;;;;;5095571;28;20239;-65
2023/01/09 05:03:55;;;;;;;1.45;0.52;;;7.70;94.20;;;;;;5095824;28;20227;-66
2023/01/09 05:06:22;;;;;;;1.50;0.50;;;7.70;94.00;;;;;;5095576;28;20665;-65
2023/01/09 05:08:49;;;;;;;2.80;0.70;;;7.70;93.40;;;;;;5095851;28;20607;-65
2023/01/09 05:11:16;;;;;;;1.60;0.68;;;7.60;93.30;;;;;;5095549;28;20645;-64
2023/01/09 05:13:43;;;;;;;1.50;0.50;;;7.60;93.40;;;;;;5095698;28;20196;-65
2023/01/09 05:16:10;;;;;;;1.70;0.60;;;7.50;93.00;;;;;;5095558;28;20597;-65
2023/01/09 05:18:39;;;;;;;1.50;0.60;;;7.50;93.10;;;;;;5095563;28;20282;-65
2023/01/09 05:21:06;;;;;;;1.60;0.50;;;7.60;93.00;;;;;;5095102;28;20666;-65
2023/01/09 05:23:33;;;;;;;1.55;0.50;;;7.50;92.50;;;;;;5095523;28;20278;-65
2023/01/09 05:26:03;;;;;;;1.50;0.60;;;7.50;92.50;;;;;;5095120;28;20192;-65
2023/01/09 05:28:30;;;;;;;1.60;0.57;;;7.50;92.40;;;;;;5095442;28;20196;-66
2023/01/09 05:30:57;;;;;;;1.50;0.60;;;7.50;92.50;;;;;;5095478;28;20237;-66
2023/01/09 05:33:24;;;;;;;1.50;0.60;;;7.50;92.40;;;;;;5095687;28;20191;-66
2023/01/09 05:35:52;;;;;;;1.50;0.60;;;7.50;92.40;;;;;;5095478;28;20233;-65
2023/01/09 05:38:21;;;;;;;1.60;0.60;;;7.40;92.40;;;;;;5094925;28;20278;-64
2023/01/09 05:40:48;;;;;;;1.50;0.60;;;7.40;92.20;;;;;;5094365;28;20309;-65
2023/01/09 05:43:15;;;;;;;1.70;0.70;;;7.30;91.80;;;;;;5091835;28;20230;-65
2023/01/09 05:45:44;;;;;;;1.50;0.60;;;7.30;91.50;;;;;;5094501;28;20566;-65
2023/01/09 05:48:12;;;;;;;1.50;0.55;;;7.30;91.10;;;;;;5094495;28;20219;-65
2023/01/09 05:50:39;;;;;;;1.70;0.80;;;7.30;91.10;;;;;;5094087;28;20179;-65
2023/01/09 05:53:07;;;;;;;1.70;0.60;;;7.30;91.00;;;;;;5094704;28;20196;-65
2023/01/09 05:55:34;;;;;;;1.55;0.52;;;7.30;90.70;;;;;;5093660;28;20278;-66
2023/01/09 05:58:03;;;;;;;1.70;0.60;;;7.30;90.10;;;;;;5094391;28;20191;-65
2023/01/09 06:00:31;;;;;;;1.70;0.65;;;7.20;90.20;;;;;;5093379;28;20222;-65
2023/01/09 06:02:59;;;;;;;1.50;0.70;;;7.20;90.00;;;;;;5094311;28;20282;-67
2023/01/09 06:05:27;;;;;;;1.60;0.60;;;7.20;89.70;;;;;;5093774;28;20187;-65
2023/01/09 06:07:56;;;;;;;1.50;0.60;;;7.10;89.10;;;;;;5094240;28;20201;-65
2023/01/09 06:10:25;;;;;;;1.50;0.60;;;7.10;88.50;;;;;;5093687;28;20186;-65
2023/01/09 06:12:53;;;;;;;1.60;0.50;;;7.10;88.30;;;;;;5094214;28;20202;-66
2023/01/09 06:15:20;;;;;;;2.50;0.90;;;7.00;87.80;;;;;;5094158;28;20196;-65
2023/01/09 06:17:48;;;;;;;1.52;0.60;;;7.00;87.40;;;;;;5093664;28;20548;-67
2023/01/09 06:20:18;;;;;;;1.80;0.80;;;7.00;88.50;;;;;;5093392;28;20215;-65
2023/01/09 06:22:45;;;;;;;1.50;0.50;;;7.00;87.60;;;;;;5093934;28;20247;-65
2023/01/09 06:25:14;;;;;;;1.80;0.70;;;7.00;87.40;;;;;;5093538;28;20257;-65
2023/01/09 06:27:43;;;;;;;1.50;0.60;;;7.00;87.50;;;;;;5093711;28;20232;-65
2023/01/09 06:30:11;;;;;;;1.60;0.60;;;6.90;87.10;;;;;;5093129;28;20658;-65
2023/01/09 06:32:38;;;;;;;1.50;0.55;;;6.90;87.40;;;;;;5093113;28;20183;-65
2023/01/09 06:35:06;;;;;;;3.58;1.73;;;6.90;87.50;;;;;;5092614;28;20267;-65
2023/01/09 06:37:36;;;;;;;2.55;1.98;;;6.90;87.50;;;;;;5093268;28;20272;-65
2023/01/09 06:40:03;;;;;;;1.70;0.80;;;6.90;87.20;;;;;;5092918;28;20214;-66
2023/01/09 06:42:32;;;;;;;1.60;0.60;;;6.90;86.90;;;;;;5090993;28;20228;-65
2023/01/09 06:45:01;;;;;;;1.60;0.65;;;6.80;86.80;;;;;;5092172;28;20724;-65
2023/01/09 06:47:28;;;;;;;2.60;0.55;;;6.80;87.10;;;;;;5090330;28;20277;-65
2023/01/09 06:49:56;;;;;;;1.45;0.50;;;6.80;87.20;;;;;;5092956;28;20233;-67
2023/01/09 06:52:23;;;;;;;1.50;0.50;;;6.80;86.70;;;;;;5072990;28;20192;-65
2023/01/09 06:54:50;;;;;;;1.50;0.50;;;6.90;86.50;;;;;;5083287;28;20628;-66
2023/01/09 06:57:17;;;;;;;1.50;0.52;;;6.80;85.60;;;;;;5092468;28;20281;-64
2023/01/09 06:59:44;;;;;;;1.55;0.57;;;6.70;84.60;;;;;;5091790;28;20261;-65
2023/01/09 07:02:18;;;;;;;1.50;0.50;;;6.60;84.10;;;;;;5092419;28;20228;-65
2023/01/09 07:04:45;;;;;;;1.88;0.68;;;6.60;84.50;;;;;;5092699;28;20204;-65
2023/01/09 07:07:12;;;;;;;2.67;0.60;;;6.60;84.30;;;;;;5092711;28;20222;-65
2023/01/09 07:09:40;;;;;;;2.60;0.50;;;6.70;84.60;;;;;;5091543;28;20237;-64
2023/01/09 07:12:07;;;;;;;1.50;0.55;;;6.70;83.90;;;;;;5092098;28;20272;-66
2023/01/09 07:14:34;;;;;;;1.48;0.50;;;6.60;83.70;;;;;;5092048;28;20183;-65
2023/01/09 07:17:02;;;;;;;2.25;1.27;;;6.60;83.50;;;;;;5092129;28;20602;-65
2023/01/09 07:19:30;;;;;;;1.60;0.60;;;6.60;83.10;;;;;;5093126;28;20233;-65
2023/01/09 07:22:01;;;;;;;1.50;0.50;;;6.60;82.80;;;;;;5093198;28;20247;-68
2023/01/09 07:24:28;;;;;;;1.67;0.70;;;6.60;83.10;;;;;;5093535;28;20193;-65
2023/01/09 07:26:55;;;;;;;1.50;0.70;;;6.60;82.80;;;;;;5093446;28;20191;-65
2023/01/09 07:29:22;;;;;;;1.60;0.63;;;6.60;83.00;;;;;;5092914;28;20238;-65
2023/01/09 07:31:49;;;;;;;1.60;0.60;;;6.60;82.90;;;;;;5093177;28;20301;-65
2023/01/09 07:34:16;;;;;;;1.70;0.68;;;6.60;82.70;;;;;;5093010;28;20240;-65
2023/01/09 07:36:45;;;;;;;1.50;0.60;;;6.60;82.20;;;;;;5093328;28;20276;-66
2023/01/09 07:39:12;;;;;;;1.50;0.50;;;6.70;82.50;;;;;;5093127;28;20636;-65
2023/01/09 07:41:39;;;;;;;2.50;0.80;;;6.70;82.10;;;;;;5093109;28;20278;-64
2023/01/09 07:44:07;;;;;;;1.50;0.50;;;6.70;82.20;;;;;;5093182;28;20225;-65
2023/01/09 07:46:33;;;;;;;2.88;0.65;;;6.80;82.50;;;;;;5093279;28;20202;-66
2023/01/09 07:49:00;;;;;;;1.92;0.80;;;6.80;82.00;;;;;;5092905;28;20284;-66
2023/01/09 07:51:27;;;;;;;1.83;0.65;;;6.90;81.80;;;;;;5092731;28;20194;-65
2023/01/09 07:53:56;;;;;;;1.90;0.63;;;7.00;81.60;;;;;;5093241;28;20272;-65
2023/01/09 07:56:23;;;;;;;1.60;0.60;;;6.90;80.10;;;;;;5093030;28;20313;-64
2023/01/09 07:58:50;;;;;;;1.70;0.70;;;6.90;80.00;;;;;;5093129;28;20238;-65
2023/01/09 08:01:17;;;;;;;2.00;0.80;;;7.00;79.60;;;;;;5092907;28;20313;-65
2023/01/09 08:03:44;;;;;;;1.50;0.60;;;7.10;78.30;;;;;;5093079;28;20229;-65
2023/01/09 08:06:11;;;;;;;2.08;0.75;;;7.00;76.20;;;;;;5097204;28;20324;-65
2023/01/09 08:08:37;;;;;;;2.58;0.70;;;7.10;76.00;;;;;;5097112;28;20660;-65
2023/01/09 08:11:06;;;;;;;1.80;0.70;;;7.00;74.60;;;;;;5096867;28;20226;-65
2023/01/09 08:13:33;;;;;;;2.78;0.70;;;7.10;74.20;;;;;;5097115;28;20693;-65
2023/01/09 08:16:00;;;;;;;2.13;0.80;;;7.10;74.10;;;;;;5097048;28;20202;-65
2023/01/09 08:18:27;;;;;;;2.33;0.80;;;7.10;74.40;;;;;;5096859;28;20245;-65
2023/01/09 08:20:54;;;;;;;1.60;0.70;;;7.20;73.90;;;;;;5096935;28;20308;-64
2023/01/09 08:23:22;;;;;;;1.60;0.60;;;7.10;71.60;;;;;;5096771;28;20226;-65
2023/01/09 08:25:49;;;;;;;1.85;0.70;;;7.00;71.60;;;;;;5096837;28;20216;-65
2023/01/09 08:28:18;;;;;;;2.35;0.70;;;7.00;72.00;;;;;;5096844;28;20690;-65
2023/01/09 08:30:46;;;;;;;1.80;0.90;;;7.00;72.00;;;;;;5096592;28;20251;-65
2023/01/09 08:33:13;;;;;;;1.83;0.68;;;6.90;72.10;;;;;;5093408;28;20191;-65
2023/01/09 08:35:40;;;;;;;2.72;0.73;;;6.90;72.50;;;;;;5095216;28;20229;-65
2023/01/09 08:38:07;;;;;;;1.70;0.80;;;6.90;72.00;;;;;;5095165;28;20281;-65
2023/01/09 08:40:34;;;;;;;1.90;0.88;;;6.90;72.70;;;;;;5095446;28;20257;-65
2023/01/09 08:48:31;;;;;;;3.25;0.75;;;6.90;73.00;;;;;;5092439;28;20197;-66
2023/01/09 08:50:58;;;;;;;1.83;0.70;;;6.80;73.00;;;;;;5094734;28;20280;-65
2023/01/09 08:53:25;;;;;;;3.22;0.80;;;6.80;73.60;;;;;;5095472;28;20229;-65
2023/01/09 08:55:52;;;;;;;1.60;0.60;;;6.80;73.30;;;;;;5095149;28;20284;-65
2023/01/09 08:58:19;;;;;;;3.00;0.88;;;6.80;73.20;;;;;;5094918;28;20676;-65
2023/01/09 09:00:47;;;;;;;2.20;1.00;;;6.80;73.60;;;;;;5095135;28;20226;-65
2023/01/09 09:03:16;;;;;;;1.70;0.60;;;6.90;73.80;;;;;;5094377;28;20286;-66
2023/01/09 09:05:43;;;;;;;1.98;0.80;;;6.90;72.70;;;;;;5094668;28;20200;-65
2023/01/09 09:08:10;;;;;;;1.70;0.60;;;6.90;73.40;;;;;;5094702;28;20193;-65
2023/01/09 09:10:37;;;;;;;1.80;0.80;;;6.90;73.30;;;;;;5094937;28;20707;-65
2023/01/09 09:13:04;;;;;;;1.50;0.70;;;6.90;73.40;;;;;;5091072;28;20228;-68
2023/01/09 09:15:33;;;;;;;2.50;0.70;;;6.90;73.10;;;;;;5093272;28;20198;-65
2023/01/09 09:18:04;;;;;;;1.80;0.70;;;6.90;73.30;;;;;;5093588;28;20301;-65
2023/01/09 09:20:32;;;;;;;1.70;0.70;;;7.00;73.40;;;;;;5094333;28;20225;-65
2023/01/09 09:23:00;;;;;;;1.52;0.55;;;7.00;73.30;;;;;;5093816;28;20198;-66
2023/01/09 09:25:27;;;;;;;2.00;0.75;;;7.10;73.30;;;;;;5093734;28;20303;-65
2023/01/09 09:27:55;;;;;;;2.85;0.60;;;7.10;72.80;;;;;;5094805;28;20235;-65
2023/01/09 09:30:23;;;;;;;1.50;0.60;;;7.10;72.90;;;;;;5093830;28;20195;-65
2023/01/09 09:32:50;;;;;;;2.17;0.70;;;7.20;73.40;;;;;;5093631;28;20647;-65
2023/01/09 09:35:19;;;;;;;5.63;0.82;;;7.30;72.80;;;;;;5094313;28;20282;-65
2023/01/09 09:37:54;;;;;;;2.25;0.70;;;7.40;70.80;;;;;;5094385;28;20194;-64
2023/01/09 09:40:37;;;;;;;1.80;0.70;;;7.40;70.70;;;;;;5093518;28;20199;-65
2023/01/09 09:46:13;;;;;;;1.88;0.77;;;7.40;69.70;;;;;;5092987;28;20194;-65
2023/01/09 09:48:48;;;;;;;2.17;0.82;;;7.50;68.60;;;;;;5091683;28;20286;-65
2023/01/09 09:51:33;;;;;;;3.22;0.90;;;7.50;68.40;;;;;;5092612;28;20223;-65
2023/01/09 09:54:02;;;;;;;3.67;0.80;;;7.60;67.80;;;;;;5094196;28;20688;-65
2023/01/09 09:56:34;;;;;;;1.55;0.57;;;7.70;66.90;;;;;;5093897;28;20230;-65
2023/01/09 09:59:04;;;;;;;2.13;0.70;;;7.70;67.30;;;;;;5093680;28;20239;-66
2023/01/09 10:01:39;;;;;;;3.70;0.90;;;7.70;67.00;;;;;;5093953;28;20310;-66
2023/01/09 10:04:11;;;;;;;2.55;1.30;;;7.70;66.70;;;;;;5092971;28;20291;-64
2023/01/09 10:06:42;;;;;;;3.35;0.90;;;7.80;66.20;;;;;;5093917;28;20291;-65
2023/01/09 10:09:17;;;;;;;2.38;0.90;;;7.80;65.70;;;;;;5093210;28;20239;-65
2023/01/09 10:11:51;;;;;;;4.80;1.15;;;7.90;65.30;;;;;;5091638;28;20625;-65
2023/01/09 10:14:18;;;;;;;2.10;0.88;;;7.90;64.40;;;;;;5092423;28;20577;-65
2023/01/09 10:16:59;;;;;;;2.15;0.95;;;7.90;64.30;;;;;;5093549;28;20290;-65
2023/01/09 10:19:42;;;;;;;3.50;1.00;;;8.00;64.10;;;;;;5093125;28;20314;-65
2023/01/09 10:22:24;;;;;;;4.28;0.85;;;8.00;63.70;;;;;;5094441;28;20224;-65
2023/01/09 10:25:08;;;;;;;3.25;1.00;;;8.10;62.90;;;;;;5094799;28;20226;-65
2023/01/09 10:27:56;;;;;;;3.58;0.68;;;8.10;62.40;;;;;;5094139;28;20196;-65
2023/01/09 10:30:32;;;;;;;4.40;1.00;;;8.20;61.00;;;;;;5094519;28;20244;-65
2023/01/09 10:33:06;;;;;;;1.70;0.70;;;8.30;61.20;;;;;;5094264;28;20191;-65
2023/01/09 10:36:13;;;;;;;3.22;1.20;;;8.40;61.50;;;;;;5094218;28;20180;-65
2023/01/09 10:38:45;;;;;;;5.53;1.40;;;8.50;60.60;;;;;;5094034;28;20188;-66
2023/01/09 10:41:18;;;;;;;3.60;0.90;;;8.40;58.90;;;;;;5093900;28;20223;-65
2023/01/09 10:43:53;;;;;;;4.95;1.00;;;8.40;59.30;;;;;;5094104;28;20217;-66
2023/01/09 10:46:26;;;;;;;2.15;0.85;;;8.50;59.30;;;;;;5094360;28;20189;-65
2023/01/09 10:48:58;;;;;;;3.67;1.10;;;8.60;59.60;;;;;;5094112;28;20193;-65
2023/01/09 10:51:32;;;;;;;1.67;0.65;;;8.50;57.30;;;;;;5093958;28;20287;-67
2023/01/09 10:54:01;;;;;;;3.97;1.38;;;8.40;57.70;;;;;;5094052;28;20196;-65
2023/01/09 10:56:31;;;;;;;1.92;0.95;;;8.40;57.50;;;;;;5093840;28;20646;-65
2023/01/09 10:58:58;;;;;;;4.70;0.90;;;8.40;57.80;;;;;;5094097;28;20196;-66
2023/01/09 11:01:27;;;;;;;2.47;0.75;;;8.50;57.40;;;;;;5093815;28;20255;-66
2023/01/09 11:03:58;;;;;;;2.20;0.80;;;8.50;57.60;;;;;;5093844;28;20239;-65
2023/01/09 11:06:30;;;;;;;1.90;1.00;;;8.50;57.90;;;;;;5094080;28;20278;-65
2023/01/09 11:09:01;;;;;;;3.33;0.95;;;8.60;56.60;;;;;;5093799;28;20699;-67
2023/01/09 11:11:33;;;;;;;2.42;1.05;;;8.60;56.90;;;;;;5094040;28;20271;-67
2023/01/09 11:14:16;;;;;;;1.90;0.90;;;8.60;56.90;;;;;;5093435;28;20196;-65
2023/01/09 11:16:54;;;;;;;5.03;1.30;;;8.60;57.40;;;;;;5093739;28;20200;-67
2023/01/09 11:19:22;;;;;;;2.95;1.25;;;8.60;57.20;;;;;;5093646;28;20256;-65
2023/01/09 11:21:49;;;;;;;3.08;1.55;;;8.60;56.50;;;;;;5093142;28;20311;-65
2023/01/09 11:24:29;;;;;;;5.63;1.38;;;8.60;56.50;;;;;;5093108;28;20243;-65
2023/01/09 11:27:25;;;;;;;2.10;0.95;;;8.60;55.50;;;;;;5093069;28;20192;-68
2023/01/09 11:30:16;;;;;;;3.97;0.70;;;8.60;56.20;;;;;;5093503;28;20283;-65
2023/01/09 11:32:45;;;;;;;4.82;1.00;;;8.70;56.40;;;;;;5093393;28;20224;-65
2023/01/09 11:35:29;;;;;;;2.28;0.80;;;8.70;56.50;;;;;;5093334;28;20228;-65
2023/01/09 11:38:08;;;;;;;2.20;1.00;;;8.70;56.40;;;;;;5093153;28;20194;-65
2023/01/09 11:40:50;;;;;;;2.05;0.70;;;8.80;57.00;;;;;;5092981;28;20185;-65
2023/01/09 11:43:24;;;;;;;1.90;0.80;;;8.90;56.30;;;;;;5093380;28;20198;-65
2023/01/09 11:45:55;;;;;;;2.33;0.80;;;8.90;55.50;;;;;;5093381;28;20185;-65
2023/01/09 11:48:32;;;;;;;5.78;0.90;;;8.90;55.60;;;;;;5092973;28;20188;-65
2023/01/09 11:51:01;;;;;;;1.60;0.60;;;8.90;54.00;;;;;;5093141;28;20287;-65
2023/01/09 11:53:28;;;;;;;2.47;0.93;;;8.90;54.40;;;;;;5093447;28;20223;-65
2023/01/09 11:56:03;;;;;;;2.00;1.00;;;9.00;55.10;;;;;;5093053;28;20250;-66
2023/01/09 11:58:33;;;;;;;3.28;1.10;;;9.10;54.90;;;;;;5093187;28;20187;-65
2023/01/09 12:01:12;;;;;;;5.65;1.38;;;9.20;53.50;;;;;;5092834;28;20543;-65
2023/01/09 12:04:03;;;;;;;4.25;1.77;;;9.20;54.50;;;;;;5093098;28;20224;-65
2023/01/09 12:06:40;;;;;;;3.70;1.27;;;9.30;53.80;;;;;;5092210;28;20195;-65
2023/01/09 12:09:11;;;;;;;3.08;1.20;;;9.30;54.40;;;;;;5084634;28;20674;-65
2023/01/09 12:11:47;;;;;;;3.75;1.23;;;9.40;54.00;;;;;;5092622;28;20215;-65
2023/01/09 12:14:42;;;;;;;5.18;0.90;;;9.40;54.20;;;;;;5093067;28;20619;-65
2023/01/09 12:17:34;;;;;;;4.63;1.15;;;9.40;53.30;;;;;;5092892;28;20524;-65
2023/01/09 12:20:39;;;;;;;2.35;1.02;;;9.50;53.40;;;;;;5092458;28;20591;-65
2023/01/09 12:23:28;;;;;;;1.92;0.80;;;9.40;52.00;;;;;;5107791;28;20297;-65
2023/01/09 12:26:06;;;;;;;5.32;0.98;;;9.40;52.70;;;;;;5102027;28;20185;-67
2023/01/09 12:28:56;;;;;;;3.97;1.15;;;9.50;53.20;;;;;;5092053;28;20636;-65
2023/01/09 12:31:36;;;;;;;9.10;1.38;;;9.50;53.10;;;;;;5089755;28;20192;-66
2023/01/09 12:34:15;;;;;;;5.72;1.30;;;9.50;52.00;;;;;;5091214;28;20723;-64
2023/01/09 12:36:58;;;;;;;3.00;1.05;;;9.50;51.90;;;;;;5092156;28;20189;-63
2023/01/09 12:39:33;;;;;;;5.10;1.50;;;9.50;51.00;;;;;;5091456;28;20189;-65
2023/01/09 12:42:25;;;;;;;2.25;1.00;;;9.60;52.60;;;;;;5092035;28;20220;-64
2023/01/09 12:44:58;;;;;;;10.80;2.50;;;9.60;52.60;;;;;;5092691;28;20193;-65
2023/01/09 12:47:41;;;;;;;4.65;1.45;;;9.70;52.90;;;;;;5091356;28;20280;-67
2023/01/09 12:50:30;;;;;;;2.65;1.52;;;9.60;52.50;;;;;;5092469;28;20663;-65
2023/01/09 12:53:06;;;;;;;3.10;1.20;;;9.60;52.30;;;;;;5095754;28;20254;-65
2023/01/09 12:55:35;;;;;;;2.45;1.15;;;9.60;51.00;;;;;;5095514;28;20188;-65
2023/01/09 12:58:08;;;;;;;7.53;1.73;;;9.60;51.80;;;;;;5096047;28;20667;-65
2023/01/09 13:00:41;;;;;;;2.88;1.35;;;9.60;52.10;;;;;;5094746;28;20532;-65
2023/01/09 13:03:15;;;;;;;15.55;1.73;;;9.60;52.10;;;;;;5095834;28;20303;-65
2023/01/09 13:05:47;;;;;;;6.90;1.65;;;9.60;52.00;;;;;;5096374;28;20597;-65
2023/01/09 13:08:18;;;;;;;6.28;1.25;;;9.60;51.90;;;;;;5095893;28;20222;-65
2023/01/09 13:10:48;;;;;;;4.03;1.30;;;9.70;52.40;;;;;;5096024;28;20224;-65
2023/01/09 13:13:19;;;;;;;5.13;1.00;;;9.70;52.60;;;;;;5096036;28;20228;-66
2023/01/09 13:15:52;;;;;;;3.90;2.15;;;9.80;52.40;;;;;;5095949;28;20679;-65
2023/01/09 13:18:24;;;;;;;4.10;1.20;;;9.80;52.40;;;;;;5095709;28;20754;-65
2023/01/09 13:20:54;;;;;;;3.00;1.55;;;9.80;52.60;;;;;;5096045;28;20276;-65
2023/01/09 13:23:30;;;;;;;3.65;1.20;;;9.90;52.70;;;;;;5095538;28;20823;-65
2023/01/09 13:26:00;;;;;;;7.95;1.23;;;9.90;50.70;;;;;;5095845;28;20242;-66